sensor_id;sensor_type;location;lat;lon;timestamp;P1;durP1;ratioP1;P2;durP2;ratioP2
15171;SDS011;7686;52.184;9.280;2023-04-15T00:01:57;8.52;;;6.25;;
15171;SDS011;7686;52.184;9.280;2023-04-15T00:04:25;9.35;;;6.55;;
15171;SDS011;7686;52.184;9.280;2023-04-15T00:06:53;8.85;;;6.10;;
15171;SDS011;7686;52.184;9.280;2023-04-15T00:09:20;7.70;;;6.00;;
15171;SDS011;7686;52.184;9.280;2023-04-15T00:11:46;9.93;;;6.28;;
15171;SDS011;7686;52.184;9.280;2023-04-15T00:14:13;9.10;;;6.32;;
15171;SDS011;7686;52.184;9.280;2023-04-15T00:16:40;8.35;;;6.00;;
15171;SDS011;7686;52.184;9.280;2023-04-15T00:19:07;8.77;;;6.35;;
15171;SDS011;7686;52.184;9.280;2023-04-15T00:21:33;9.30;;;6.15;;
15171;SDS011;7686;52.184;9.280;2023-04-15T00:24:00;8.60;;;6.25;;
15171;SDS011;7686;52.184;9.280;2023-04-15T00:26:27;7.90;;;5.85;;
15171;SDS011;7686;52.184;9.280;2023-04-15T00:28:53;8.82;;;6.00;;
15171;SDS011;7686;52.184;9.280;2023-04-15T00:31:20;8.25;;;5.53;;
15171;SDS011;7686;52.184;9.280;2023-04-15T00:33:47;7.93;;;5.72;;
15171;SDS011;7686;52.184;9.280;2023-04-15T00:36:13;9.85;;;6.50;;
15171;SDS011;7686;52.184;9.280;2023-04-15T00:38:40;8.52;;;5.30;;
15171;SDS011;7686;52.184;9.280;2023-04-15T00:41:07;7.70;;;5.78;;
15171;SDS011;7686;52.184;9.280;2023-04-15T00:43:35;7.70;;;5.72;;
15171;SDS011;7686;52.184;9.280;2023-04-15T00:46:03;7.32;;;5.70;;
15171;SDS011;7686;52.184;9.280;2023-04-15T00:48:31;8.52;;;5.28;;
15171;SDS011;7686;52.184;9.280;2023-04-15T00:50:57;8.52;;;6.10;;
15171;SDS011;7686;52.184;9.280;2023-04-15T00:53:24;9.10;;;5.70;;
15171;SDS011;7686;52.184;9.280;2023-04-15T00:55:51;8.35;;;5.70;;
15171;SDS011;7686;52.184;9.280;2023-04-15T00:58:18;7.57;;;5.22;;
15171;SDS011;7686;52.184;9.280;2023-04-15T01:00:45;7.38;;;5.07;;
15171;SDS011;7686;52.184;9.280;2023-04-15T01:03:12;7.88;;;5.63;;
15171;SDS011;7686;52.184;9.280;2023-04-15T01:05:40;6.88;;;5.13;;
15171;SDS011;7686;52.184;9.280;2023-04-15T01:08:07;7.00;;;4.72;;
15171;SDS011;7686;52.184;9.280;2023-04-15T01:10:34;7.30;;;5.55;;
15171;SDS011;7686;52.184;9.280;2023-04-15T01:13:01;8.00;;;5.40;;
15171;SDS011;7686;52.184;9.280;2023-04-15T01:15:28;7.03;;;5.47;;
15171;SDS011;7686;52.184;9.280;2023-04-15T01:17:56;7.13;;;4.88;;
15171;SDS011;7686;52.184;9.280;2023-04-15T01:20:24;7.18;;;4.82;;
15171;SDS011;7686;52.184;9.280;2023-04-15T01:22:51;7.18;;;5.05;;
15171;SDS011;7686;52.184;9.280;2023-04-15T01:25:27;6.70;;;4.63;;
15171;SDS011;7686;52.184;9.280;2023-04-15T01:28:00;7.47;;;4.97;;
15171;SDS011;7686;52.184;9.280;2023-04-15T01:30:27;7.68;;;4.97;;
15171;SDS011;7686;52.184;9.280;2023-04-15T01:32:54;6.28;;;4.80;;
15171;SDS011;7686;52.184;9.280;2023-04-15T01:35:21;6.95;;;4.57;;
15171;SDS011;7686;52.184;9.280;2023-04-15T01:37:47;6.47;;;4.47;;
15171;SDS011;7686;52.184;9.280;2023-04-15T01:40:14;6.28;;;4.70;;
15171;SDS011;7686;52.184;9.280;2023-04-15T01:42:41;7.30;;;4.65;;
15171;SDS011;7686;52.184;9.280;2023-04-15T01:45:08;7.20;;;5.10;;
15171;SDS011;7686;52.184;9.280;2023-04-15T01:47:35;7.05;;;4.97;;
15171;SDS011;7686;52.184;9.280;2023-04-15T01:50:02;6.95;;;4.78;;
15171;SDS011;7686;52.184;9.280;2023-04-15T01:52:28;6.20;;;4.53;;
15171;SDS011;7686;52.184;9.280;2023-04-15T01:54:55;6.82;;;4.80;;
15171;SDS011;7686;52.184;9.280;2023-04-15T01:57:22;7.28;;;4.90;;
15171;SDS011;7686;52.184;9.280;2023-04-15T01:59:48;6.75;;;4.43;;
15171;SDS011;7686;52.184;9.280;2023-04-15T02:02:15;6.55;;;4.45;;
15171;SDS011;7686;52.184;9.280;2023-04-15T02:04:42;7.00;;;5.00;;
15171;SDS011;7686;52.184;9.280;2023-04-15T02:07:09;7.13;;;4.78;;
15171;SDS011;7686;52.184;9.280;2023-04-15T02:09:36;6.25;;;4.55;;
15171;SDS011;7686;52.184;9.280;2023-04-15T02:12:03;6.40;;;4.45;;
15171;SDS011;7686;52.184;9.280;2023-04-15T02:14:30;6.63;;;4.63;;
15171;SDS011;7686;52.184;9.280;2023-04-15T02:16:57;7.35;;;4.55;;
15171;SDS011;7686;52.184;9.280;2023-04-15T02:19:27;7.55;;;4.70;;
15171;SDS011;7686;52.184;9.280;2023-04-15T02:21:53;6.53;;;4.40;;
15171;SDS011;7686;52.184;9.280;2023-04-15T02:24:20;6.55;;;4.53;;
15171;SDS011;7686;52.184;9.280;2023-04-15T02:26:47;6.38;;;4.60;;
15171;SDS011;7686;52.184;9.280;2023-04-15T02:29:14;6.32;;;4.40;;
15171;SDS011;7686;52.184;9.280;2023-04-15T02:31:41;6.63;;;4.28;;
15171;SDS011;7686;52.184;9.280;2023-04-15T02:34:08;6.72;;;4.30;;
15171;SDS011;7686;52.184;9.280;2023-04-15T02:36:35;5.32;;;3.85;;
15171;SDS011;7686;52.184;9.280;2023-04-15T02:39:02;6.47;;;4.38;;
15171;SDS011;7686;52.184;9.280;2023-04-15T02:41:29;5.63;;;3.72;;
15171;SDS011;7686;52.184;9.280;2023-04-15T02:43:56;5.85;;;4.05;;
15171;SDS011;7686;52.184;9.280;2023-04-15T02:46:22;6.45;;;4.32;;
15171;SDS011;7686;52.184;9.280;2023-04-15T02:48:49;6.38;;;3.97;;
15171;SDS011;7686;52.184;9.280;2023-04-15T02:51:17;5.80;;;3.95;;
15171;SDS011;7686;52.184;9.280;2023-04-15T02:53:45;5.50;;;3.80;;
15171;SDS011;7686;52.184;9.280;2023-04-15T02:56:12;6.28;;;4.10;;
15171;SDS011;7686;52.184;9.280;2023-04-15T02:58:40;5.63;;;3.65;;
15171;SDS011;7686;52.184;9.280;2023-04-15T03:01:08;5.60;;;4.03;;
15171;SDS011;7686;52.184;9.280;2023-04-15T03:03:35;5.85;;;3.92;;
15171;SDS011;7686;52.184;9.280;2023-04-15T03:06:02;5.32;;;3.67;;
15171;SDS011;7686;52.184;9.280;2023-04-15T03:08:28;6.05;;;4.10;;
15171;SDS011;7686;52.184;9.280;2023-04-15T03:10:56;5.00;;;3.70;;
15171;SDS011;7686;52.184;9.280;2023-04-15T03:13:25;6.00;;;3.63;;
15171;SDS011;7686;52.184;9.280;2023-04-15T03:15:52;5.28;;;3.53;;
15171;SDS011;7686;52.184;9.280;2023-04-15T03:18:18;5.93;;;3.88;;
15171;SDS011;7686;52.184;9.280;2023-04-15T03:20:46;5.63;;;3.53;;
15171;SDS011;7686;52.184;9.280;2023-04-15T03:23:13;6.03;;;3.92;;
15171;SDS011;7686;52.184;9.280;2023-04-15T03:25:39;5.47;;;3.65;;
15171;SDS011;7686;52.184;9.280;2023-04-15T03:28:06;5.28;;;3.55;;
15171;SDS011;7686;52.184;9.280;2023-04-15T03:30:33;5.25;;;3.65;;
15171;SDS011;7686;52.184;9.280;2023-04-15T03:32:59;5.55;;;3.83;;
15171;SDS011;7686;52.184;9.280;2023-04-15T03:35:26;5.38;;;3.67;;
15171;SDS011;7686;52.184;9.280;2023-04-15T03:37:53;6.18;;;3.58;;
15171;SDS011;7686;52.184;9.280;2023-04-15T03:40:20;5.15;;;3.55;;
15171;SDS011;7686;52.184;9.280;2023-04-15T03:42:46;5.10;;;3.40;;
15171;SDS011;7686;52.184;9.280;2023-04-15T03:45:13;5.30;;;3.47;;
15171;SDS011;7686;52.184;9.280;2023-04-15T03:47:40;5.50;;;3.25;;
15171;SDS011;7686;52.184;9.280;2023-04-15T03:50:06;4.78;;;3.28;;
15171;SDS011;7686;52.184;9.280;2023-04-15T03:52:33;4.80;;;3.30;;
15171;SDS011;7686;52.184;9.280;2023-04-15T03:55:00;5.43;;;3.38;;
15171;SDS011;7686;52.184;9.280;2023-04-15T03:57:27;6.07;;;3.65;;
15171;SDS011;7686;52.184;9.280;2023-04-15T03:59:53;4.68;;;3.05;;
15171;SDS011;7686;52.184;9.280;2023-04-15T04:02:20;5.63;;;3.45;;
15171;SDS011;7686;52.184;9.280;2023-04-15T04:04:48;5.32;;;3.67;;
15171;SDS011;7686;52.184;9.280;2023-04-15T04:07:15;4.78;;;3.05;;
15171;SDS011;7686;52.184;9.280;2023-04-15T04:09:42;5.07;;;3.22;;
15171;SDS011;7686;52.184;9.280;2023-04-15T04:12:10;5.55;;;3.58;;
15171;SDS011;7686;52.184;9.280;2023-04-15T04:14:37;4.43;;;3.00;;
15171;SDS011;7686;52.184;9.280;2023-04-15T04:17:03;5.00;;;3.40;;
15171;SDS011;7686;52.184;9.280;2023-04-15T04:19:30;4.35;;;2.85;;
15171;SDS011;7686;52.184;9.280;2023-04-15T04:21:57;5.00;;;3.33;;
15171;SDS011;7686;52.184;9.280;2023-04-15T04:24:23;4.85;;;3.08;;
15171;SDS011;7686;52.184;9.280;2023-04-15T04:26:51;5.00;;;3.35;;
15171;SDS011;7686;52.184;9.280;2023-04-15T04:29:17;4.57;;;3.00;;
15171;SDS011;7686;52.184;9.280;2023-04-15T04:31:44;5.10;;;3.13;;
15171;SDS011;7686;52.184;9.280;2023-04-15T04:34:11;4.60;;;3.10;;
15171;SDS011;7686;52.184;9.280;2023-04-15T04:36:38;4.13;;;2.78;;
15171;SDS011;7686;52.184;9.280;2023-04-15T04:39:04;4.88;;;3.00;;
15171;SDS011;7686;52.184;9.280;2023-04-15T04:41:31;5.15;;;2.95;;
15171;SDS011;7686;52.184;9.280;2023-04-15T04:43:58;4.68;;;3.10;;
15171;SDS011;7686;52.184;9.280;2023-04-15T04:46:24;4.72;;;3.10;;
15171;SDS011;7686;52.184;9.280;2023-04-15T04:48:51;4.00;;;2.67;;
15171;SDS011;7686;52.184;9.280;2023-04-15T04:51:18;4.90;;;2.80;;
15171;SDS011;7686;52.184;9.280;2023-04-15T04:53:44;5.68;;;3.00;;
15171;SDS011;7686;52.184;9.280;2023-04-15T04:56:11;4.10;;;2.70;;
15171;SDS011;7686;52.184;9.280;2023-04-15T04:58:38;4.45;;;2.63;;
15171;SDS011;7686;52.184;9.280;2023-04-15T05:01:04;4.45;;;3.08;;
15171;SDS011;7686;52.184;9.280;2023-04-15T05:03:31;3.90;;;2.58;;
15171;SDS011;7686;52.184;9.280;2023-04-15T05:05:58;4.18;;;2.55;;
15171;SDS011;7686;52.184;9.280;2023-04-15T05:08:25;3.80;;;2.50;;
15171;SDS011;7686;52.184;9.280;2023-04-15T05:10:51;4.38;;;2.55;;
15171;SDS011;7686;52.184;9.280;2023-04-15T05:13:18;4.55;;;2.60;;
15171;SDS011;7686;52.184;9.280;2023-04-15T05:15:46;3.95;;;2.47;;
15171;SDS011;7686;52.184;9.280;2023-04-15T05:18:13;4.63;;;2.60;;
15171;SDS011;7686;52.184;9.280;2023-04-15T05:20:39;4.80;;;2.70;;
15171;SDS011;7686;52.184;9.280;2023-04-15T05:23:06;3.72;;;2.40;;
15171;SDS011;7686;52.184;9.280;2023-04-15T05:25:33;3.85;;;2.60;;
15171;SDS011;7686;52.184;9.280;2023-04-15T05:27:59;4.03;;;2.47;;
15171;SDS011;7686;52.184;9.280;2023-04-15T05:30:26;3.85;;;2.70;;
15171;SDS011;7686;52.184;9.280;2023-04-15T05:32:52;3.75;;;2.20;;
15171;SDS011;7686;52.184;9.280;2023-04-15T05:35:19;4.13;;;2.55;;
15171;SDS011;7686;52.184;9.280;2023-04-15T05:37:46;4.20;;;2.38;;
15171;SDS011;7686;52.184;9.280;2023-04-15T05:40:13;4.03;;;2.35;;
15171;SDS011;7686;52.184;9.280;2023-04-15T05:42:40;3.97;;;2.33;;
15171;SDS011;7686;52.184;9.280;2023-04-15T05:45:07;3.97;;;2.47;;
15171;SDS011;7686;52.184;9.280;2023-04-15T05:47:34;2.95;;;2.08;;
15171;SDS011;7686;52.184;9.280;2023-04-15T05:50:02;3.08;;;2.13;;
15171;SDS011;7686;52.184;9.280;2023-04-15T05:52:30;4.10;;;2.40;;
15171;SDS011;7686;52.184;9.280;2023-04-15T05:54:57;3.50;;;2.22;;
15171;SDS011;7686;52.184;9.280;2023-04-15T05:57:23;3.88;;;2.30;;
15171;SDS011;7686;52.184;9.280;2023-04-15T05:59:50;3.03;;;2.15;;
15171;SDS011;7686;52.184;9.280;2023-04-15T06:02:17;3.75;;;2.30;;
15171;SDS011;7686;52.184;9.280;2023-04-15T06:04:44;3.65;;;2.22;;
15171;SDS011;7686;52.184;9.280;2023-04-15T06:07:11;3.50;;;2.17;;
15171;SDS011;7686;52.184;9.280;2023-04-15T06:09:37;3.45;;;2.10;;
15171;SDS011;7686;52.184;9.280;2023-04-15T06:12:04;2.80;;;2.00;;
15171;SDS011;7686;52.184;9.280;2023-04-15T06:14:31;3.83;;;2.28;;
15171;SDS011;7686;52.184;9.280;2023-04-15T06:16:58;3.35;;;2.28;;
15171;SDS011;7686;52.184;9.280;2023-04-15T06:19:25;3.20;;;2.10;;
15171;SDS011;7686;52.184;9.280;2023-04-15T06:21:51;3.95;;;2.30;;
15171;SDS011;7686;52.184;9.280;2023-04-15T06:24:18;2.75;;;1.80;;
15171;SDS011;7686;52.184;9.280;2023-04-15T06:26:44;2.75;;;1.88;;
15171;SDS011;7686;52.184;9.280;2023-04-15T06:29:11;3.67;;;2.10;;
15171;SDS011;7686;52.184;9.280;2023-04-15T06:31:38;3.63;;;2.17;;
15171;SDS011;7686;52.184;9.280;2023-04-15T06:34:04;2.45;;;1.83;;
15171;SDS011;7686;52.184;9.280;2023-04-15T06:36:31;4.82;;;2.10;;
15171;SDS011;7686;52.184;9.280;2023-04-15T06:38:58;2.95;;;1.90;;
15171;SDS011;7686;52.184;9.280;2023-04-15T06:41:24;2.95;;;2.00;;
15171;SDS011;7686;52.184;9.280;2023-04-15T06:43:51;3.10;;;2.08;;
15171;SDS011;7686;52.184;9.280;2023-04-15T06:46:18;2.90;;;1.90;;
15171;SDS011;7686;52.184;9.280;2023-04-15T06:48:45;3.58;;;2.05;;
15171;SDS011;7686;52.184;9.280;2023-04-15T06:51:12;2.85;;;1.90;;
15171;SDS011;7686;52.184;9.280;2023-04-15T06:53:39;3.38;;;2.17;;
15171;SDS011;7686;52.184;9.280;2023-04-15T06:56:07;3.00;;;1.92;;
15171;SDS011;7686;52.184;9.280;2023-04-15T06:58:34;2.67;;;1.83;;
15171;SDS011;7686;52.184;9.280;2023-04-15T07:01:01;2.80;;;1.80;;
15171;SDS011;7686;52.184;9.280;2023-04-15T07:03:29;3.00;;;2.05;;
15171;SDS011;7686;52.184;9.280;2023-04-15T07:05:58;3.13;;;1.88;;
15171;SDS011;7686;52.184;9.280;2023-04-15T07:08:24;3.35;;;1.98;;
15171;SDS011;7686;52.184;9.280;2023-04-15T07:10:51;2.38;;;1.58;;
15171;SDS011;7686;52.184;9.280;2023-04-15T07:13:19;3.20;;;1.83;;
15171;SDS011;7686;52.184;9.280;2023-04-15T07:15:45;3.28;;;1.92;;
15171;SDS011;7686;52.184;9.280;2023-04-15T07:18:12;2.85;;;1.83;;
15171;SDS011;7686;52.184;9.280;2023-04-15T07:20:39;3.33;;;1.95;;
15171;SDS011;7686;52.184;9.280;2023-04-15T07:23:05;3.20;;;1.88;;
15171;SDS011;7686;52.184;9.280;2023-04-15T07:25:32;3.72;;;2.08;;
15171;SDS011;7686;52.184;9.280;2023-04-15T07:27:58;3.15;;;1.85;;
15171;SDS011;7686;52.184;9.280;2023-04-15T07:30:25;2.53;;;1.60;;
15171;SDS011;7686;52.184;9.280;2023-04-15T07:32:52;2.63;;;1.77;;
15171;SDS011;7686;52.184;9.280;2023-04-15T07:35:19;2.90;;;1.80;;
15171;SDS011;7686;52.184;9.280;2023-04-15T07:37:47;3.97;;;1.90;;
15171;SDS011;7686;52.184;9.280;2023-04-15T07:40:13;2.90;;;1.60;;
15171;SDS011;7686;52.184;9.280;2023-04-15T07:42:41;3.08;;;1.85;;
15171;SDS011;7686;52.184;9.280;2023-04-15T07:45:08;2.90;;;1.90;;
15171;SDS011;7686;52.184;9.280;2023-04-15T07:47:35;2.83;;;1.73;;
15171;SDS011;7686;52.184;9.280;2023-04-15T07:50:02;2.92;;;1.70;;
15171;SDS011;7686;52.184;9.280;2023-04-15T07:52:29;3.75;;;1.80;;
15171;SDS011;7686;52.184;9.280;2023-04-15T07:54:55;4.90;;;1.60;;
15171;SDS011;7686;52.184;9.280;2023-04-15T07:57:22;2.42;;;1.40;;
15171;SDS011;7686;52.184;9.280;2023-04-15T07:59:48;3.85;;;1.65;;
15171;SDS011;7686;52.184;9.280;2023-04-15T08:02:15;2.53;;;1.63;;
15171;SDS011;7686;52.184;9.280;2023-04-15T08:04:42;4.65;;;1.60;;
15171;SDS011;7686;52.184;9.280;2023-04-15T08:07:09;4.25;;;1.60;;
15171;SDS011;7686;52.184;9.280;2023-04-15T08:09:36;4.13;;;1.60;;
15171;SDS011;7686;52.184;9.280;2023-04-15T08:12:02;4.13;;;1.80;;
15171;SDS011;7686;52.184;9.280;2023-04-15T08:14:29;3.38;;;1.73;;
15171;SDS011;7686;52.184;9.280;2023-04-15T08:16:56;3.70;;;1.75;;
15171;SDS011;7686;52.184;9.280;2023-04-15T08:19:22;3.00;;;1.92;;
15171;SDS011;7686;52.184;9.280;2023-04-15T08:21:49;3.15;;;1.60;;
15171;SDS011;7686;52.184;9.280;2023-04-15T08:24:16;2.17;;;1.50;;
15171;SDS011;7686;52.184;9.280;2023-04-15T08:26:43;4.30;;;1.80;;
15171;SDS011;7686;52.184;9.280;2023-04-15T08:29:11;6.43;;;1.92;;
15171;SDS011;7686;52.184;9.280;2023-04-15T08:31:38;2.70;;;1.50;;
15171;SDS011;7686;52.184;9.280;2023-04-15T08:34:05;3.20;;;1.63;;
15171;SDS011;7686;52.184;9.280;2023-04-15T08:36:31;3.78;;;1.45;;
15171;SDS011;7686;52.184;9.280;2023-04-15T08:38:58;3.50;;;1.58;;
15171;SDS011;7686;52.184;9.280;2023-04-15T08:41:27;4.40;;;1.77;;
15171;SDS011;7686;52.184;9.280;2023-04-15T08:44:06;2.67;;;1.50;;
15171;SDS011;7686;52.184;9.280;2023-04-15T08:46:32;4.43;;;1.60;;
15171;SDS011;7686;52.184;9.280;2023-04-15T08:49:03;2.30;;;1.42;;
15171;SDS011;7686;52.184;9.280;2023-04-15T08:51:30;2.65;;;1.58;;
15171;SDS011;7686;52.184;9.280;2023-04-15T08:53:58;2.42;;;1.50;;
15171;SDS011;7686;52.184;9.280;2023-04-15T08:56:26;2.15;;;1.33;;
15171;SDS011;7686;52.184;9.280;2023-04-15T08:58:56;2.78;;;1.60;;
15171;SDS011;7686;52.184;9.280;2023-04-15T09:01:23;2.47;;;1.50;;
15171;SDS011;7686;52.184;9.280;2023-04-15T09:03:51;2.83;;;1.42;;
15171;SDS011;7686;52.184;9.280;2023-04-15T09:06:21;1.20;;;1.10;;
15171;SDS011;7686;52.184;9.280;2023-04-15T09:08:49;2.15;;;1.30;;
15171;SDS011;7686;52.184;9.280;2023-04-15T09:11:17;1.92;;;1.20;;
15171;SDS011;7686;52.184;9.280;2023-04-15T09:13:45;3.03;;;1.30;;
15171;SDS011;7686;52.184;9.280;2023-04-15T09:16:12;2.00;;;1.20;;
15171;SDS011;7686;52.184;9.280;2023-04-15T09:18:39;2.80;;;1.55;;
15171;SDS011;7686;52.184;9.280;2023-04-15T09:21:09;1.83;;;1.25;;
15171;SDS011;7686;52.184;9.280;2023-04-15T09:23:39;2.55;;;1.33;;
15171;SDS011;7686;52.184;9.280;2023-04-15T09:26:19;4.25;;;1.27;;
15171;SDS011;7686;52.184;9.280;2023-04-15T09:29:01;2.47;;;1.40;;
15171;SDS011;7686;52.184;9.280;2023-04-15T09:31:35;2.67;;;1.38;;
15171;SDS011;7686;52.184;9.280;2023-04-15T09:34:02;3.10;;;1.50;;
15171;SDS011;7686;52.184;9.280;2023-04-15T09:36:35;2.20;;;1.20;;
15171;SDS011;7686;52.184;9.280;2023-04-15T09:39:23;2.00;;;1.30;;
15171;SDS011;7686;52.184;9.280;2023-04-15T09:42:03;2.22;;;1.40;;
15171;SDS011;7686;52.184;9.280;2023-04-15T09:44:31;1.67;;;1.25;;
15171;SDS011;7686;52.184;9.280;2023-04-15T09:46:58;2.53;;;1.40;;
15171;SDS011;7686;52.184;9.280;2023-04-15T09:49:24;2.38;;;1.30;;
15171;SDS011;7686;52.184;9.280;2023-04-15T09:51:56;3.40;;;1.38;;
15171;SDS011;7686;52.184;9.280;2023-04-15T09:54:32;2.78;;;1.30;;
15171;SDS011;7686;52.184;9.280;2023-04-15T09:57:04;3.10;;;1.25;;
15171;SDS011;7686;52.184;9.280;2023-04-15T09:59:34;3.60;;;1.20;;
15171;SDS011;7686;52.184;9.280;2023-04-15T10:02:03;3.55;;;1.30;;
15171;SDS011;7686;52.184;9.280;2023-04-15T10:04:32;3.08;;;1.33;;
15171;SDS011;7686;52.184;9.280;2023-04-15T10:07:02;3.33;;;1.30;;
15171;SDS011;7686;52.184;9.280;2023-04-15T10:09:31;3.65;;;1.35;;
15171;SDS011;7686;52.184;9.280;2023-04-15T10:11:59;3.47;;;1.17;;
15171;SDS011;7686;52.184;9.280;2023-04-15T10:14:26;2.75;;;1.15;;
15171;SDS011;7686;52.184;9.280;2023-04-15T10:16:54;2.03;;;1.08;;
15171;SDS011;7686;52.184;9.280;2023-04-15T10:19:22;4.38;;;1.33;;
15171;SDS011;7686;52.184;9.280;2023-04-15T10:21:53;3.78;;;1.50;;
15171;SDS011;7686;52.184;9.280;2023-04-15T10:24:20;3.78;;;1.40;;
15171;SDS011;7686;52.184;9.280;2023-04-15T10:26:49;2.40;;;1.30;;
15171;SDS011;7686;52.184;9.280;2023-04-15T10:29:16;2.95;;;1.13;;
15171;SDS011;7686;52.184;9.280;2023-04-15T10:31:44;3.00;;;1.15;;
15171;SDS011;7686;52.184;9.280;2023-04-15T10:34:12;2.90;;;1.40;;
15171;SDS011;7686;52.184;9.280;2023-04-15T10:36:40;2.65;;;1.40;;
15171;SDS011;7686;52.184;9.280;2023-04-15T10:42:05;2.53;;;1.20;;
15171;SDS011;7686;52.184;9.280;2023-04-15T10:44:34;3.45;;;1.27;;
15171;SDS011;7686;52.184;9.280;2023-04-15T10:49:43;3.13;;;1.27;;
15171;SDS011;7686;52.184;9.280;2023-04-15T10:52:24;3.65;;;1.40;;
15171;SDS011;7686;52.184;9.280;2023-04-15T10:57:37;2.88;;;1.15;;
15171;SDS011;7686;52.184;9.280;2023-04-15T11:00:09;2.95;;;1.40;;
15171;SDS011;7686;52.184;9.280;2023-04-15T11:05:18;2.15;;;1.20;;
15171;SDS011;7686;52.184;9.280;2023-04-15T11:07:50;3.30;;;1.40;;
15171;SDS011;7686;52.184;9.280;2023-04-15T11:13:02;3.97;;;1.40;;
15171;SDS011;7686;52.184;9.280;2023-04-15T11:18:10;2.00;;;1.08;;
15171;SDS011;7686;52.184;9.280;2023-04-15T11:20:39;3.15;;;1.27;;
15171;SDS011;7686;52.184;9.280;2023-04-15T11:23:07;2.80;;;1.10;;
15171;SDS011;7686;52.184;9.280;2023-04-15T11:25:40;2.22;;;1.35;;
15171;SDS011;7686;52.184;9.280;2023-04-15T11:28:07;4.25;;;1.30;;
15171;SDS011;7686;52.184;9.280;2023-04-15T11:30:35;2.22;;;1.20;;
15171;SDS011;7686;52.184;9.280;2023-04-15T11:33:03;1.33;;;1.13;;
15171;SDS011;7686;52.184;9.280;2023-04-15T11:35:31;3.28;;;1.40;;
15171;SDS011;7686;52.184;9.280;2023-04-15T11:37:57;2.25;;;1.13;;
15171;SDS011;7686;52.184;9.280;2023-04-15T11:40:29;3.25;;;1.40;;
15171;SDS011;7686;52.184;9.280;2023-04-15T11:43:09;1.95;;;1.20;;
15171;SDS011;7686;52.184;9.280;2023-04-15T11:45:49;1.77;;;1.08;;
15171;SDS011;7686;52.184;9.280;2023-04-15T11:48:18;5.28;;;1.33;;
15171;SDS011;7686;52.184;9.280;2023-04-15T11:50:51;3.85;;;1.33;;
15171;SDS011;7686;52.184;9.280;2023-04-15T11:53:40;3.92;;;1.25;;
15171;SDS011;7686;52.184;9.280;2023-04-15T11:56:08;4.60;;;1.30;;
15171;SDS011;7686;52.184;9.280;2023-04-15T11:58:36;2.72;;;1.40;;
15171;SDS011;7686;52.184;9.280;2023-04-15T12:01:04;3.75;;;1.67;;
15171;SDS011;7686;52.184;9.280;2023-04-15T12:03:42;3.22;;;1.50;;
15171;SDS011;7686;52.184;9.280;2023-04-15T12:11:18;3.67;;;1.50;;
15171;SDS011;7686;52.184;9.280;2023-04-15T12:13:47;3.25;;;1.40;;
15171;SDS011;7686;52.184;9.280;2023-04-15T12:16:20;3.67;;;1.58;;
15171;SDS011;7686;52.184;9.280;2023-04-15T12:18:51;4.18;;;1.60;;
15171;SDS011;7686;52.184;9.280;2023-04-15T12:21:22;3.55;;;1.60;;
15171;SDS011;7686;52.184;9.280;2023-04-15T12:23:51;3.35;;;1.58;;
15171;SDS011;7686;52.184;9.280;2023-04-15T12:26:25;3.25;;;1.35;;
15171;SDS011;7686;52.184;9.280;2023-04-15T12:29:00;3.20;;;1.52;;
15171;SDS011;7686;52.184;9.280;2023-04-15T12:31:27;2.83;;;1.30;;
15171;SDS011;7686;52.184;9.280;2023-04-15T12:33:58;6.05;;;2.00;;
15171;SDS011;7686;52.184;9.280;2023-04-15T12:36:26;3.88;;;1.50;;
15171;SDS011;7686;52.184;9.280;2023-04-15T12:38:53;2.85;;;1.35;;
15171;SDS011;7686;52.184;9.280;2023-04-15T12:41:20;3.08;;;1.50;;
15171;SDS011;7686;52.184;9.280;2023-04-15T12:43:47;2.58;;;1.25;;
15171;SDS011;7686;52.184;9.280;2023-04-15T12:46:14;3.13;;;1.38;;
15171;SDS011;7686;52.184;9.280;2023-04-15T12:48:41;3.92;;;1.38;;
15171;SDS011;7686;52.184;9.280;2023-04-15T12:51:07;4.22;;;1.60;;
15171;SDS011;7686;52.184;9.280;2023-04-15T12:53:34;3.17;;;1.33;;
15171;SDS011;7686;52.184;9.280;2023-04-15T12:56:00;3.83;;;1.42;;
15171;SDS011;7686;52.184;9.280;2023-04-15T12:58:27;2.60;;;1.30;;
15171;SDS011;7686;52.184;9.280;2023-04-15T13:00:54;2.40;;;1.25;;
15171;SDS011;7686;52.184;9.280;2023-04-15T13:03:22;3.58;;;1.50;;
15171;SDS011;7686;52.184;9.280;2023-04-15T13:05:49;2.20;;;1.20;;
15171;SDS011;7686;52.184;9.280;2023-04-15T13:08:16;3.00;;;1.42;;
15171;SDS011;7686;52.184;9.280;2023-04-15T13:10:42;4.00;;;1.38;;
15171;SDS011;7686;52.184;9.280;2023-04-15T13:13:09;3.53;;;1.15;;
15171;SDS011;7686;52.184;9.280;2023-04-15T13:15:36;3.60;;;1.40;;
15171;SDS011;7686;52.184;9.280;2023-04-15T13:18:04;1.45;;;1.10;;
15171;SDS011;7686;52.184;9.280;2023-04-15T13:20:31;2.28;;;1.13;;
15171;SDS011;7686;52.184;9.280;2023-04-15T13:22:58;3.70;;;1.23;;
15171;SDS011;7686;52.184;9.280;2023-04-15T13:25:24;3.42;;;1.20;;
15171;SDS011;7686;52.184;9.280;2023-04-15T13:27:52;1.42;;;1.10;;
15171;SDS011;7686;52.184;9.280;2023-04-15T13:30:18;3.30;;;1.30;;
15171;SDS011;7686;52.184;9.280;2023-04-15T13:32:45;3.08;;;1.23;;
15171;SDS011;7686;52.184;9.280;2023-04-15T13:35:15;4.35;;;1.30;;
15171;SDS011;7686;52.184;9.280;2023-04-15T13:37:42;3.10;;;1.05;;
15171;SDS011;7686;52.184;9.280;2023-04-15T13:40:08;3.65;;;1.30;;
15171;SDS011;7686;52.184;9.280;2023-04-15T13:42:36;2.40;;;1.30;;
15171;SDS011;7686;52.184;9.280;2023-04-15T13:45:02;2.72;;;1.27;;
15171;SDS011;7686;52.184;9.280;2023-04-15T13:47:29;2.47;;;1.15;;
15171;SDS011;7686;52.184;9.280;2023-04-15T13:49:56;3.20;;;1.08;;
15171;SDS011;7686;52.184;9.280;2023-04-15T13:52:22;2.13;;;1.10;;
15171;SDS011;7686;52.184;9.280;2023-04-15T13:54:49;2.00;;;1.00;;
15171;SDS011;7686;52.184;9.280;2023-04-15T13:57:36;2.33;;;1.27;;
15171;SDS011;7686;52.184;9.280;2023-04-15T14:00:03;2.08;;;1.25;;
15171;SDS011;7686;52.184;9.280;2023-04-15T14:02:31;3.10;;;1.27;;
15171;SDS011;7686;52.184;9.280;2023-04-15T14:04:58;3.90;;;1.17;;
15171;SDS011;7686;52.184;9.280;2023-04-15T14:07:24;3.15;;;1.20;;
15171;SDS011;7686;52.184;9.280;2023-04-15T14:09:51;3.00;;;1.10;;
15171;SDS011;7686;52.184;9.280;2023-04-15T14:12:17;4.88;;;1.25;;
15171;SDS011;7686;52.184;9.280;2023-04-15T14:14:44;3.17;;;1.40;;
15171;SDS011;7686;52.184;9.280;2023-04-15T14:17:11;2.83;;;1.20;;
15171;SDS011;7686;52.184;9.280;2023-04-15T14:19:38;1.80;;;1.17;;
15171;SDS011;7686;52.184;9.280;2023-04-15T14:22:04;3.75;;;1.20;;
15171;SDS011;7686;52.184;9.280;2023-04-15T14:24:31;3.88;;;1.60;;
15171;SDS011;7686;52.184;9.280;2023-04-15T14:26:58;3.53;;;1.63;;
15171;SDS011;7686;52.184;9.280;2023-04-15T14:29:24;3.85;;;1.60;;
15171;SDS011;7686;52.184;9.280;2023-04-15T14:31:51;2.53;;;1.33;;
15171;SDS011;7686;52.184;9.280;2023-04-15T14:34:37;2.70;;;1.40;;
15171;SDS011;7686;52.184;9.280;2023-04-15T14:37:04;2.83;;;1.40;;
15171;SDS011;7686;52.184;9.280;2023-04-15T14:39:31;3.38;;;1.30;;
15171;SDS011;7686;52.184;9.280;2023-04-15T14:41:57;3.17;;;1.38;;
15171;SDS011;7686;52.184;9.280;2023-04-15T14:44:24;1.73;;;1.10;;
15171;SDS011;7686;52.184;9.280;2023-04-15T14:46:51;2.83;;;1.40;;
15171;SDS011;7686;52.184;9.280;2023-04-15T14:49:17;2.33;;;1.23;;
15171;SDS011;7686;52.184;9.280;2023-04-15T14:51:44;2.47;;;1.40;;
15171;SDS011;7686;52.184;9.280;2023-04-15T14:54:11;3.05;;;1.50;;
15171;SDS011;7686;52.184;9.280;2023-04-15T14:56:38;3.92;;;1.55;;
15171;SDS011;7686;52.184;9.280;2023-04-15T14:59:04;3.58;;;1.50;;
15171;SDS011;7686;52.184;9.280;2023-04-15T15:01:32;2.20;;;1.30;;
15171;SDS011;7686;52.184;9.280;2023-04-15T15:03:59;3.50;;;1.40;;
15171;SDS011;7686;52.184;9.280;2023-04-15T15:06:25;7.20;;;1.40;;
15171;SDS011;7686;52.184;9.280;2023-04-15T15:08:52;2.25;;;1.20;;
15171;SDS011;7686;52.184;9.280;2023-04-15T15:11:19;4.47;;;1.58;;
15171;SDS011;7686;52.184;9.280;2023-04-15T15:13:46;3.55;;;1.70;;
15171;SDS011;7686;52.184;9.280;2023-04-15T15:16:12;3.97;;;1.50;;
15171;SDS011;7686;52.184;9.280;2023-04-15T15:18:39;3.50;;;1.35;;
15171;SDS011;7686;52.184;9.280;2023-04-15T15:21:06;2.15;;;1.30;;
15171;SDS011;7686;52.184;9.280;2023-04-15T15:23:33;3.08;;;1.40;;
15171;SDS011;7686;52.184;9.280;2023-04-15T15:25:59;4.22;;;1.27;;